createdAt,value
2019-05-23T00:01:54.127Z,43.07
2019-05-23T00:04:27.148Z,28.00
2019-05-23T00:06:57.826Z,32.30
2019-05-23T00:09:26.436Z,37.20
2019-05-23T00:12:00.798Z,32.00
2019-05-23T00:14:36.586Z,29.73
2019-05-23T00:17:06.163Z,29.63
2019-05-23T00:19:34.637Z,32.53
2019-05-23T00:22:03.688Z,28.23
2019-05-23T00:24:33.042Z,34.97
2019-05-23T00:27:02.241Z,29.73
2019-05-23T00:29:31.321Z,27.10
2019-05-23T00:32:19.676Z,24.83
2019-05-23T00:34:49.829Z,27.00
2019-05-23T00:37:20.337Z,26.10
2019-05-23T00:39:49.102Z,26.10
2019-05-23T00:42:18.239Z,32.73
2019-05-23T00:44:47.147Z,24.83
2019-05-23T00:47:16.937Z,30.07
2019-05-23T00:49:47.061Z,20.20
2019-05-23T00:52:17.038Z,22.13
2019-05-23T00:54:45.685Z,24.60
2019-05-23T00:57:15.275Z,22.53
2019-05-23T00:59:44.547Z,21.57
2019-05-23T01:02:13.424Z,25.80
2019-05-23T01:04:42.463Z,26.67
2019-05-23T01:07:12.523Z,26.40
2019-05-23T01:09:42.808Z,28.33
2019-05-23T01:12:12.651Z,29.10
2019-05-23T01:14:41.440Z,26.70
2019-05-23T01:17:10.085Z,26.70
2019-05-23T01:19:39.737Z,26.90
2019-05-23T01:22:10.033Z,24.43
2019-05-23T01:24:40.694Z,23.63
2019-05-23T01:27:10.300Z,28.43
2019-05-23T01:29:40.724Z,24.70
2019-05-23T01:32:11.486Z,23.13
2019-05-23T01:34:44.910Z,24.03
2019-05-23T01:37:13.932Z,24.87
2019-05-23T01:39:42.621Z,26.13
2019-05-23T01:42:11.060Z,30.83
2019-05-23T01:44:40.721Z,24.57
2019-05-23T01:47:10.392Z,32.60
2019-05-23T01:49:38.887Z,19.27
2019-05-23T01:52:08.837Z,26.43
2019-05-23T01:54:37.893Z,27.20
2019-05-23T01:57:07.286Z,29.53
2019-05-23T01:59:36.312Z,37.70
2019-05-23T02:02:04.981Z,43.03
2019-05-23T02:04:33.442Z,32.07
2019-05-23T02:07:02.764Z,20.00
2019-05-23T02:09:31.380Z,27.43
2019-05-23T02:12:01.110Z,25.60
2019-05-23T02:14:30.059Z,28.00
2019-05-23T02:17:00.513Z,26.17
2019-05-23T02:19:29.264Z,24.57
2019-05-23T02:21:57.856Z,30.80
2019-05-23T02:24:26.860Z,23.97
2019-05-23T02:26:55.988Z,52.13
2019-05-23T02:29:26.010Z,34.70
2019-05-23T02:31:56.217Z,28.43
2019-05-23T02:34:25.543Z,29.50
2019-05-23T02:36:57.104Z,41.23
2019-05-23T02:39:30.901Z,29.40
2019-05-23T02:42:03.889Z,27.00
2019-05-23T02:44:33.000Z,34.23
2019-05-23T02:47:09.975Z,31.77
2019-05-23T02:49:39.360Z,26.47
2019-05-23T02:52:27.277Z,36.50
2019-05-23T02:54:55.942Z,33.33
2019-05-23T02:57:26.678Z,44.50
2019-05-23T02:59:59.231Z,29.00
2019-05-23T03:02:47.383Z,27.10
2019-05-23T03:05:18.020Z,27.63
2019-05-23T03:07:46.469Z,34.13
2019-05-23T03:10:16.756Z,23.07
2019-05-23T03:12:47.474Z,27.80
2019-05-23T03:15:17.066Z,33.13
2019-05-23T03:17:51.564Z,25.47
2019-05-23T03:20:21.431Z,24.57
2019-05-23T03:23:02.102Z,22.80
2019-05-23T03:25:36.764Z,32.20
2019-05-23T03:28:08.100Z,26.67
2019-05-23T03:30:38.593Z,24.87
2019-05-23T03:33:12.417Z,25.40
2019-05-23T03:35:42.469Z,30.80
2019-05-23T03:38:11.183Z,37.60
2019-05-23T03:40:41.314Z,33.20
2019-05-23T03:43:12.012Z,30.93
2019-05-23T03:45:43.972Z,29.70
2019-05-23T03:48:14.379Z,28.83
2019-05-23T03:50:44.333Z,28.63
2019-05-23T03:53:12.904Z,26.37
2019-05-23T03:55:42.660Z,24.70
2019-05-23T03:58:11.736Z,25.00
2019-05-23T04:00:41.978Z,24.67
2019-05-23T04:03:11.920Z,29.70
2019-05-23T04:05:40.902Z,25.20
2019-05-23T04:08:10.892Z,28.57
2019-05-23T04:10:39.397Z,23.63
2019-05-23T04:13:08.589Z,30.50
2019-05-23T04:15:37.837Z,24.27
2019-05-23T04:18:06.645Z,23.00
2019-05-23T04:20:35.593Z,25.30
2019-05-23T04:23:04.792Z,24.00
2019-05-23T04:25:34.139Z,30.30
2019-05-23T04:28:03.189Z,26.80
2019-05-23T04:30:32.543Z,19.50
2019-05-23T04:33:01.831Z,22.20
2019-05-23T04:35:31.341Z,28.23
2019-05-23T04:38:00.123Z,17.97
2019-05-23T04:40:28.878Z,15.97
2019-05-23T04:42:57.277Z,20.33
2019-05-23T04:45:27.547Z,17.80
2019-05-23T04:47:56.463Z,18.50
2019-05-23T04:50:25.622Z,19.57
2019-05-23T04:52:54.425Z,17.53
2019-05-23T04:55:25.354Z,17.83
2019-05-23T04:57:53.937Z,18.57
2019-05-23T05:00:23.818Z,16.20
2019-05-23T05:02:52.880Z,15.03
2019-05-23T05:05:21.924Z,25.67
2019-05-23T05:07:50.425Z,24.43
2019-05-23T05:10:22.920Z,19.30
2019-05-23T05:12:52.181Z,21.60
2019-05-23T05:15:22.147Z,23.90
2019-05-23T05:17:50.654Z,16.33
2019-05-23T05:20:19.161Z,18.23
2019-05-23T05:22:47.819Z,22.23
2019-05-23T05:25:17.487Z,17.00
2019-05-23T05:27:47.385Z,18.70
2019-05-23T05:30:16.234Z,18.60
2019-05-23T05:32:45.767Z,19.67
2019-05-23T05:35:15.620Z,16.40
2019-05-23T05:37:44.081Z,21.40
2019-05-23T05:40:15.302Z,17.63
2019-05-23T05:42:45.568Z,22.07
2019-05-23T05:45:17.129Z,18.60
2019-05-23T05:47:50.125Z,16.90
2019-05-23T05:50:24.019Z,19.13
2019-05-23T05:52:55.966Z,20.37
2019-05-23T05:55:24.164Z,18.37
2019-05-23T05:57:52.728Z,20.20
2019-05-23T06:00:28.443Z,24.30
2019-05-23T06:03:05.206Z,28.10
2019-05-23T06:05:35.601Z,16.30
2019-05-23T06:08:12.776Z,15.73
2019-05-23T06:10:44.979Z,19.23
2019-05-23T06:13:19.321Z,15.80
2019-05-23T06:15:51.206Z,18.63
2019-05-23T06:18:22.947Z,16.17
2019-05-23T06:20:51.385Z,23.97
2019-05-23T06:23:20.050Z,21.27
2019-05-23T06:25:51.027Z,18.40
2019-05-23T06:28:21.412Z,20.47
2019-05-23T06:30:51.227Z,20.07
2019-05-23T06:33:23.615Z,18.30
2019-05-23T06:35:54.069Z,17.37
2019-05-23T06:38:27.350Z,23.93
2019-05-23T06:40:59.489Z,28.40
2019-05-23T06:43:29.519Z,15.47
2019-05-23T06:45:58.334Z,19.17
2019-05-23T06:48:29.165Z,21.00
2019-05-23T06:51:01.269Z,22.27
2019-05-23T06:56:16.065Z,20.60
2019-05-23T06:58:46.252Z,20.47
2019-05-23T07:01:19.766Z,24.73
2019-05-23T07:03:52.105Z,17.50
2019-05-23T07:06:26.380Z,31.63
2019-05-23T07:08:56.253Z,18.60
2019-05-23T07:11:25.416Z,21.37
2019-05-23T07:13:55.158Z,24.47
2019-05-23T07:16:27.632Z,19.40
2019-05-23T07:18:57.817Z,21.13
2019-05-23T07:21:27.748Z,19.20
2019-05-23T07:23:56.197Z,23.70
2019-05-23T07:26:28.175Z,23.90
2019-05-23T07:29:01.399Z,23.33
2019-05-23T07:31:31.407Z,21.07
2019-05-23T07:34:02.268Z,21.77
2019-05-23T07:36:31.424Z,19.43
2019-05-23T07:39:06.461Z,21.97
2019-05-23T07:41:38.266Z,25.50
2019-05-23T07:44:11.782Z,23.53
2019-05-23T07:46:44.496Z,18.90
2019-05-23T07:49:17.550Z,23.03
2019-05-23T07:51:43.190Z,18.57
2019-05-23T07:54:14.815Z,23.50
2019-05-23T07:56:48.330Z,21.13
2019-05-23T07:59:21.554Z,24.30
2019-05-23T08:01:54.577Z,18.77
2019-05-23T08:04:24.445Z,23.10
2019-05-23T08:06:54.043Z,15.77
2019-05-23T08:09:23.500Z,21.27
2019-05-23T08:11:57.424Z,20.63
2019-05-23T08:14:28.569Z,16.90
2019-05-23T08:16:58.598Z,24.97
2019-05-23T08:19:27.198Z,21.27
2019-05-23T08:21:57.695Z,19.07
2019-05-23T08:24:29.676Z,17.37
2019-05-23T08:27:03.194Z,18.60
2019-05-23T08:29:31.919Z,27.30
2019-05-23T08:32:00.812Z,19.03
2019-05-23T08:34:41.387Z,20.93
2019-05-23T08:37:07.912Z,24.83
2019-05-23T08:39:39.478Z,22.70
2019-05-23T08:42:14.066Z,18.90
2019-05-23T08:44:48.798Z,18.73
2019-05-23T08:47:21.361Z,18.63
2019-05-23T08:49:54.832Z,21.47
2019-05-23T08:52:23.343Z,28.13
2019-05-23T08:54:57.624Z,23.57
2019-05-23T08:57:26.380Z,18.17
2019-05-23T08:59:58.219Z,32.93
2019-05-23T09:02:29.131Z,19.77
2019-05-23T09:05:05.609Z,19.90
2019-05-23T09:07:28.449Z,19.33
2019-05-23T09:09:58.452Z,17.07
2019-05-23T09:12:32.497Z,17.97
2019-05-23T09:15:09.598Z,17.40
2019-05-23T09:17:52.305Z,23.73
2019-05-23T09:20:13.839Z,18.35
2019-05-23T09:22:51.331Z,23.15
2019-05-23T09:25:15.950Z,32.90
2019-05-23T09:27:45.409Z,15.55
2019-05-23T09:30:17.624Z,17.95
2019-05-23T09:32:51.191Z,15.93
2019-05-23T09:35:24.409Z,15.83
2019-05-23T09:37:56.938Z,15.98
2019-05-23T09:40:32.990Z,18.07
2019-05-23T09:43:06.414Z,17.00
2019-05-23T09:45:40.664Z,16.50
2019-05-23T09:48:14.091Z,21.90
2019-05-23T09:50:46.916Z,26.17
2019-05-23T09:53:16.292Z,20.70
2019-05-23T09:55:45.079Z,19.57
2019-05-23T09:58:16.860Z,26.00
2019-05-23T10:00:49.410Z,17.13
2019-05-23T10:03:22.848Z,19.73
2019-05-23T10:05:53.678Z,20.10
2019-05-23T10:08:22.493Z,25.57
2019-05-23T10:10:51.577Z,18.73
2019-05-23T10:13:38.569Z,15.50
2019-05-23T10:16:06.195Z,18.60
2019-05-23T10:18:35.171Z,15.95
2019-05-23T10:21:07.202Z,16.60
2019-05-23T10:23:41.492Z,15.30
2019-05-23T10:26:14.073Z,16.43
2019-05-23T10:28:47.487Z,25.00
2019-05-23T10:31:13.915Z,16.93
2019-05-23T10:33:43.823Z,20.13
2019-05-23T10:36:16.798Z,17.60
2019-05-23T10:38:49.093Z,16.00
2019-05-23T10:43:59.775Z,9.50
2019-05-23T10:46:32.466Z,14.17
2019-05-23T10:49:06.475Z,16.77
2019-05-23T10:51:36.201Z,15.80
2019-05-23T10:54:05.707Z,11.27
2019-05-23T10:56:34.970Z,19.37
2019-05-23T10:59:05.987Z,9.10
2019-05-23T11:01:38.309Z,13.00
2019-05-23T11:04:05.337Z,8.00
2019-05-23T11:06:35.714Z,12.43
2019-05-23T11:09:09.351Z,7.20
2019-05-23T11:11:42.514Z,9.03
2019-05-23T11:14:14.544Z,7.90
2019-05-23T11:16:43.910Z,9.67
2019-05-23T11:19:13.189Z,12.67
2019-05-23T11:21:43.493Z,12.30
2019-05-23T11:24:16.708Z,10.10
2019-05-23T11:26:51.200Z,14.17
2019-05-23T11:29:21.205Z,7.13
2019-05-23T11:31:50.464Z,9.88
2019-05-23T11:34:21.117Z,5.37
2019-05-23T11:36:52.953Z,9.03
2019-05-23T11:39:25.651Z,6.40
2019-05-23T11:41:54.525Z,8.77
2019-05-23T11:44:23.385Z,5.70
2019-05-23T11:46:55.392Z,8.37
2019-05-23T11:49:27.008Z,6.87
2019-05-23T11:52:01.685Z,4.37
2019-05-23T11:54:26.863Z,7.47
2019-05-23T11:56:55.921Z,6.67
2019-05-23T11:59:29.435Z,3.57
2019-05-23T12:02:06.353Z,5.27
2019-05-23T12:04:38.062Z,6.70
2019-05-23T12:07:12.216Z,4.87
2019-05-23T12:09:45.497Z,4.20
2019-05-23T12:12:15.750Z,3.43
2019-05-23T12:14:44.839Z,11.53
2019-05-23T12:17:15.547Z,7.70
2019-05-23T12:19:47.814Z,5.10
2019-05-23T12:22:19.825Z,4.47
2019-05-23T12:24:54.107Z,6.77
2019-05-23T12:27:18.582Z,6.67
2019-05-23T12:29:48.689Z,4.67
2019-05-23T12:32:20.680Z,6.40
2019-05-23T12:35:08.732Z,9.90
2019-05-23T12:37:20.778Z,8.43
2019-05-23T12:39:49.784Z,7.60
2019-05-23T12:42:22.684Z,5.77
2019-05-23T12:44:53.137Z,7.25
2019-05-23T12:47:23.600Z,7.43
2019-05-23T12:49:53.853Z,9.80
2019-05-23T12:52:23.770Z,5.10
2019-05-23T12:54:56.917Z,8.03
2019-05-23T12:57:30.895Z,6.53
2019-05-23T13:00:03.329Z,4.87
2019-05-23T13:02:32.131Z,8.20
2019-05-23T13:05:00.646Z,4.30
2019-05-23T13:07:36.668Z,4.27
2019-05-23T13:10:07.142Z,7.17
2019-05-23T13:12:39.735Z,5.37
2019-05-23T13:15:10.893Z,7.07
2019-05-23T13:17:39.793Z,3.70
2019-05-23T13:20:10.042Z,4.93
2019-05-23T13:22:41.245Z,7.80
2019-05-23T13:25:11.758Z,13.27
2019-05-23T13:27:40.204Z,4.40
2019-05-23T13:30:10.261Z,4.57
2019-05-23T13:32:43.256Z,6.57
2019-05-23T13:35:15.975Z,3.73
2019-05-23T13:37:53.650Z,6.63
2019-05-23T13:40:16.112Z,6.13
2019-05-23T13:42:46.618Z,4.20
2019-05-23T13:45:19.664Z,2.97
2019-05-23T13:47:51.974Z,6.73
2019-05-23T13:50:21.999Z,3.90
2019-05-23T13:52:51.399Z,10.93
2019-05-23T13:55:20.461Z,8.93
2019-05-23T13:57:53.143Z,4.40
2019-05-23T14:00:26.397Z,10.50
2019-05-23T14:02:56.386Z,4.23
2019-05-23T14:05:25.336Z,5.60
2019-05-23T14:08:10.458Z,11.17
2019-05-23T14:10:29.439Z,7.70
2019-05-23T14:13:00.284Z,4.70
2019-05-23T14:15:37.787Z,4.47
2019-05-23T14:18:12.272Z,7.37
2019-05-23T14:20:45.529Z,3.87
2019-05-23T14:23:18.628Z,5.23
2019-05-23T14:25:54.840Z,8.30
2019-05-23T14:28:26.975Z,12.30
2019-05-23T14:30:59.316Z,5.37
2019-05-23T14:33:49.003Z,4.63
2019-05-23T14:36:23.793Z,4.43
2019-05-23T14:38:55.478Z,10.73
2019-05-23T14:41:24.324Z,12.83
2019-05-23T14:43:53.584Z,13.43
2019-05-23T14:46:28.798Z,12.27
2019-05-23T14:49:02.909Z,7.63
2019-05-23T14:51:34.220Z,3.47
2019-05-23T14:54:22.779Z,8.40
2019-05-23T14:56:56.694Z,12.23
2019-05-23T14:59:31.014Z,8.60
2019-05-23T15:02:01.715Z,8.33
2019-05-23T15:04:30.463Z,4.07
2019-05-23T15:06:58.883Z,6.40
2019-05-23T15:09:27.457Z,4.23
2019-05-23T15:11:56.410Z,5.20
2019-05-23T15:14:24.983Z,2.67
2019-05-23T15:16:53.464Z,4.77
2019-05-23T15:19:39.876Z,4.90
2019-05-23T15:21:52.286Z,4.67
2019-05-23T15:24:21.570Z,9.93
2019-05-23T15:26:50.017Z,11.50
2019-05-23T15:29:18.504Z,17.30
2019-05-23T15:32:00.931Z,3.53
2019-05-23T15:34:17.165Z,4.40
2019-05-23T15:36:45.697Z,4.10
2019-05-23T15:39:14.492Z,10.53
2019-05-23T15:41:42.937Z,12.63
2019-05-23T15:44:24.440Z,5.10
2019-05-23T15:46:42.300Z,3.93
2019-05-23T15:49:12.793Z,5.30
2019-05-23T15:51:43.012Z,6.30
2019-05-23T15:54:19.468Z,16.83
2019-05-23T15:56:58.554Z,6.37
2019-05-23T15:59:37.806Z,2.70
2019-05-23T16:02:19.649Z,11.13
2019-05-23T16:04:48.607Z,6.00
2019-05-23T16:07:17.186Z,6.10
2019-05-23T16:09:45.971Z,7.87
2019-05-23T16:12:15.232Z,3.97
2019-05-23T16:14:44.324Z,11.80
2019-05-23T16:17:13.112Z,8.10
2019-05-23T16:19:42.641Z,4.10
2019-05-23T16:22:11.803Z,4.13
2019-05-23T16:24:40.455Z,3.90
2019-05-23T16:27:09.248Z,8.60
2019-05-23T16:29:38.487Z,9.03
2019-05-23T16:32:06.942Z,3.03
2019-05-23T16:34:35.962Z,5.33
2019-05-23T16:37:04.513Z,4.10
2019-05-23T16:39:46.653Z,3.40
2019-05-23T16:42:05.067Z,8.27
2019-05-23T16:44:33.502Z,9.30
2019-05-23T16:47:02.024Z,5.80
2019-05-23T16:49:31.071Z,5.40
2019-05-23T16:51:59.673Z,8.77
2019-05-23T16:54:29.751Z,3.93
2019-05-23T16:57:00.045Z,4.50
2019-05-23T16:59:30.347Z,15.80
2019-05-23T17:02:06.345Z,4.50
2019-05-23T17:04:41.981Z,7.07
2019-05-23T17:07:28.481Z,4.73
2019-05-23T17:10:08.452Z,12.37
2019-05-23T17:12:45.549Z,8.53
2019-05-23T17:15:32.917Z,2.50
2019-05-23T17:18:05.733Z,3.80
2019-05-23T17:20:36.067Z,6.90
2019-05-23T17:23:22.693Z,7.50
2019-05-23T17:25:55.577Z,7.10
2019-05-23T17:28:28.555Z,11.37
2019-05-23T17:31:01.648Z,4.03
2019-05-23T17:33:31.505Z,4.73
2019-05-23T17:36:00.370Z,8.87
2019-05-23T17:38:28.824Z,5.70
2019-05-23T17:40:57.573Z,5.40
2019-05-23T17:43:26.651Z,2.37
2019-05-23T17:45:55.299Z,3.80
2019-05-23T17:48:23.948Z,3.10
2019-05-23T17:50:52.492Z,19.77
2019-05-23T17:53:20.983Z,6.13
2019-05-23T17:55:49.569Z,7.33
2019-05-23T17:58:18.142Z,9.20
2019-05-23T18:00:48.809Z,5.67
2019-05-23T18:03:17.496Z,4.10
2019-05-23T18:05:46.315Z,11.60
2019-05-23T18:08:19.562Z,7.30
2019-05-23T18:10:48.369Z,6.23
2019-05-23T18:13:18.117Z,4.10
2019-05-23T18:15:47.257Z,7.83
2019-05-23T18:18:15.916Z,3.33
2019-05-23T18:20:44.700Z,13.47
2019-05-23T18:23:13.601Z,6.17
2019-05-23T18:25:42.809Z,6.07
2019-05-23T18:28:13.714Z,10.60
2019-05-23T18:30:47.346Z,4.17
2019-05-23T18:33:17.894Z,5.50
2019-05-23T18:35:48.209Z,5.90
2019-05-23T18:38:17.310Z,6.27
2019-05-23T18:41:01.511Z,11.93
2019-05-23T18:43:17.085Z,8.97
2019-05-23T18:45:47.314Z,7.10
2019-05-23T18:48:16.001Z,6.70
2019-05-23T18:50:45.023Z,15.07
2019-05-23T18:53:13.772Z,9.30
2019-05-23T18:55:42.210Z,7.87
2019-05-23T18:58:10.687Z,10.37
2019-05-23T19:00:47.512Z,7.40
2019-05-23T19:03:16.485Z,8.10
2019-05-23T19:05:44.998Z,21.07
2019-05-23T19:08:13.639Z,13.00
2019-05-23T19:10:42.522Z,7.83
2019-05-23T19:13:11.322Z,6.63
2019-05-23T19:15:40.393Z,10.70
2019-05-23T19:18:09.379Z,4.60
2019-05-23T19:20:39.905Z,7.57
2019-05-23T19:23:08.704Z,8.17
2019-05-23T19:25:37.572Z,10.20
2019-05-23T19:28:07.899Z,10.10
2019-05-23T19:30:36.769Z,9.43
2019-05-23T19:33:05.559Z,7.87
2019-05-23T19:35:34.130Z,13.23
2019-05-23T19:38:02.842Z,11.60
2019-05-23T19:40:32.190Z,4.83
2019-05-23T19:43:00.987Z,9.97
2019-05-23T19:45:30.102Z,15.50
2019-05-23T19:47:58.989Z,12.00
2019-05-23T19:50:28.384Z,17.70
2019-05-23T19:52:56.833Z,10.27
2019-05-23T19:55:25.332Z,7.97
2019-05-23T19:57:55.407Z,6.77
2019-05-23T20:00:25.518Z,21.73
2019-05-23T20:03:03.106Z,8.33
2019-05-23T20:05:32.796Z,9.13
2019-05-23T20:08:01.442Z,9.13
2019-05-23T20:10:30.492Z,12.10
2019-05-23T20:12:58.955Z,8.03
2019-05-23T20:15:28.205Z,6.70
2019-05-23T20:17:56.702Z,9.43
2019-05-23T20:20:25.934Z,8.03
2019-05-23T20:22:54.557Z,8.60
2019-05-23T20:25:24.714Z,10.23
2019-05-23T20:27:53.789Z,8.23
2019-05-23T20:30:48.279Z,6.47
2019-05-23T20:33:17.766Z,16.53
2019-05-23T20:35:46.498Z,11.93
2019-05-23T20:38:14.945Z,13.27
2019-05-23T20:40:43.403Z,19.67
2019-05-23T20:43:12.288Z,10.87
2019-05-23T20:45:40.891Z,11.63
2019-05-23T20:48:09.857Z,9.53
2019-05-23T20:50:38.318Z,7.57
2019-05-23T20:53:07.096Z,6.37
2019-05-23T20:55:35.934Z,7.00
2019-05-23T20:58:05.369Z,10.93
2019-05-23T21:00:35.756Z,14.27
2019-05-23T21:03:04.887Z,8.43
2019-05-23T21:05:34.167Z,12.20
2019-05-23T21:08:02.593Z,8.27
2019-05-23T21:10:45.478Z,11.83
2019-05-23T21:13:14.005Z,11.20
2019-05-23T21:15:44.146Z,5.47
2019-05-23T21:18:13.398Z,7.20
2019-05-23T21:20:42.025Z,9.50
2019-05-23T21:23:10.874Z,8.53
2019-05-23T21:25:41.304Z,4.73
2019-05-23T21:28:09.825Z,6.40
2019-05-23T21:30:38.316Z,6.20
2019-05-23T21:33:06.800Z,8.37
2019-05-23T21:35:35.318Z,10.60
2019-05-23T21:38:04.100Z,4.93
2019-05-23T21:40:38.580Z,6.30
2019-05-23T21:43:07.274Z,4.53
2019-05-23T21:45:35.793Z,6.97
2019-05-23T21:48:04.676Z,8.00
2019-05-23T21:50:33.367Z,7.17
2019-05-23T21:53:02.266Z,8.13
2019-05-23T21:55:39.503Z,6.60
2019-05-23T21:58:08.706Z,10.30
2019-05-23T22:01:06.248Z,7.33
2019-05-23T22:03:43.350Z,15.17
2019-05-23T22:06:14.657Z,6.57
2019-05-23T22:08:44.080Z,12.30
2019-05-23T22:11:12.709Z,4.80
2019-05-23T22:13:41.170Z,6.30
2019-05-23T22:16:10.017Z,9.43
2019-05-23T22:18:38.758Z,4.90
2019-05-23T22:21:07.445Z,6.50
2019-05-23T22:23:36.093Z,5.87
2019-05-23T22:26:04.588Z,6.63
2019-05-23T22:28:33.202Z,7.23
2019-05-23T22:31:01.679Z,5.40
2019-05-23T22:33:34.870Z,10.00
2019-05-23T22:36:04.145Z,6.70
2019-05-23T22:38:32.600Z,8.97
2019-05-23T22:41:01.013Z,6.80
2019-05-23T22:43:29.436Z,5.40
2019-05-23T22:45:57.868Z,6.87
2019-05-23T22:48:26.384Z,5.00
2019-05-23T22:50:54.864Z,8.30
2019-05-23T22:53:23.754Z,21.03
2019-05-23T22:55:52.183Z,6.40
2019-05-23T22:58:20.692Z,5.27
2019-05-23T23:00:49.898Z,6.03
2019-05-23T23:03:18.328Z,7.70
2019-05-23T23:05:46.828Z,5.47
2019-05-23T23:08:16.582Z,4.30
2019-05-23T23:10:45.600Z,7.00
2019-05-23T23:13:15.071Z,8.17
2019-05-23T23:15:43.844Z,9.00
2019-05-23T23:18:12.284Z,4.67
2019-05-23T23:20:40.712Z,6.03
2019-05-23T23:23:09.354Z,7.03
2019-05-23T23:25:37.804Z,7.20
2019-05-23T23:28:06.528Z,15.33
2019-05-23T23:30:39.264Z,6.93
2019-05-23T23:33:07.733Z,11.13
2019-05-23T23:35:36.306Z,5.47
2019-05-23T23:38:05.096Z,11.47
2019-05-23T23:40:34.488Z,6.07
2019-05-23T23:43:03.494Z,8.63
2019-05-23T23:45:50.104Z,8.70
2019-05-23T23:48:36.502Z,7.30
2019-05-23T23:51:22.958Z,8.40
2019-05-23T23:54:09.777Z,13.23
2019-05-23T23:56:56.376Z,5.97
2019-05-23T23:59:24.278Z,5.23
